createdAt,value
2023-02-13T01:52:46.200Z,22.92
2023-02-13T01:53:46.161Z,22.98
2023-02-13T01:54:46.127Z,23.01
2023-02-13T01:55:46.125Z,22.99
2023-02-13T01:56:46.023Z,22.93
2023-02-13T01:57:45.988Z,22.96
2023-02-13T01:58:45.941Z,22.96
2023-02-13T01:59:45.890Z,22.93
2023-02-13T02:00:45.845Z,23.02
2023-02-13T02:01:45.941Z,22.98
2023-02-13T02:02:45.852Z,22.95
2023-02-13T02:03:45.691Z,22.95
2023-02-13T02:04:45.664Z,22.95
2023-02-13T02:05:45.786Z,22.95
2023-02-13T02:06:45.587Z,22.89
2023-02-13T02:07:45.840Z,22.98
2023-02-13T02:09:45.452Z,22.89
2023-02-13T02:10:45.404Z,22.89
2023-02-13T02:11:45.401Z,22.99
2023-02-13T02:12:45.668Z,22.89
2023-02-13T02:13:45.335Z,22.95
2023-02-13T02:14:45.239Z,22.93
2023-02-13T02:15:45.311Z,22.95
2023-02-13T02:16:45.168Z,22.92
2023-02-13T02:17:45.113Z,22.96
2023-02-13T02:18:45.290Z,22.93
2023-02-13T02:19:45.091Z,22.95
2023-02-13T02:20:45.006Z,22.95
2023-02-13T02:21:44.994Z,22.95
2023-02-13T02:22:44.917Z,22.95
2023-02-13T02:23:44.847Z,22.98
2023-02-13T02:24:44.812Z,22.93
2023-02-13T02:25:44.751Z,22.96
2023-02-13T02:26:44.756Z,22.90
2023-02-13T02:27:44.684Z,22.98
2023-02-13T02:28:44.638Z,22.93
2023-02-13T02:29:44.602Z,22.95
2023-02-13T02:30:44.549Z,22.92
2023-02-13T02:31:44.526Z,22.93
2023-02-13T02:32:44.453Z,22.92
2023-02-13T02:33:44.422Z,22.96
2023-02-13T02:34:44.387Z,22.93
2023-02-13T02:35:44.310Z,22.93
2023-02-13T02:36:44.275Z,22.93
2023-02-13T02:37:44.251Z,22.92
2023-02-13T02:38:44.210Z,22.99
2023-02-13T02:39:44.192Z,22.92
2023-02-13T02:40:44.154Z,22.90
2023-02-13T02:41:44.061Z,22.92
2023-02-13T02:42:44.022Z,22.92
2023-02-13T02:43:44.025Z,22.99
2023-02-13T02:44:43.993Z,22.98
2023-02-13T04:19:39.474Z,21.34
2023-02-13T04:20:39.409Z,21.39
2023-02-13T04:21:39.398Z,21.37
2023-02-13T04:22:39.372Z,21.37
2023-02-13T04:23:39.292Z,21.37
2023-02-13T04:24:39.228Z,21.36
2023-02-13T04:25:39.288Z,21.39
2023-02-13T04:26:39.136Z,21.34
2023-02-13T04:27:39.103Z,21.40
2023-02-13T04:28:39.076Z,21.31
2023-02-13T04:29:39.012Z,21.36
2023-02-13T04:30:39.016Z,21.34
2023-02-13T04:31:39.082Z,21.28
2023-02-13T04:32:38.874Z,21.28
2023-02-13T04:33:38.835Z,21.34
2023-02-13T04:34:38.792Z,21.44
2023-02-13T04:35:38.729Z,21.43
2023-02-13T04:36:38.737Z,21.36
2023-02-13T04:37:38.655Z,21.36
2023-02-13T04:38:38.605Z,21.40
2023-02-13T04:39:38.603Z,21.41
2023-02-13T04:40:38.525Z,21.48
2023-02-13T04:41:38.496Z,21.50
2023-02-13T04:42:38.485Z,21.49
2023-02-13T04:43:38.435Z,21.46
2023-02-13T04:44:38.405Z,21.40
2023-02-13T04:45:38.383Z,21.46
2023-02-13T04:46:38.283Z,21.43
2023-02-13T04:47:38.250Z,21.44
2023-02-13T04:48:38.931Z,21.43
2023-02-13T04:49:38.202Z,21.48
2023-02-13T04:50:38.135Z,21.51
2023-02-13T04:51:38.137Z,21.52
2023-02-13T04:52:38.052Z,21.50
2023-02-13T04:53:38.017Z,21.53
2023-02-13T04:54:37.961Z,21.59
2023-02-13T04:55:37.930Z,21.62
2023-02-13T04:56:37.860Z,21.61
2023-02-13T04:57:37.839Z,21.62
2023-02-13T04:58:37.829Z,21.67
2023-02-13T04:59:37.772Z,21.61
2023-02-13T05:00:38.669Z,21.59
2023-02-13T05:01:37.724Z,21.67
2023-02-13T05:02:39.336Z,21.74
2023-02-13T05:03:37.596Z,21.67
2023-02-13T05:04:37.588Z,21.67
2023-02-13T05:05:37.546Z,21.68
2023-02-13T05:06:37.495Z,21.68
2023-02-13T05:07:37.455Z,21.68
2023-02-13T05:08:37.399Z,21.71
2023-02-13T05:09:37.368Z,21.71
2023-02-13T05:10:37.358Z,21.73
2023-02-13T05:11:37.271Z,21.75
2023-02-13T05:12:37.242Z,21.79
2023-02-13T05:13:37.194Z,21.83
2023-02-13T05:14:37.154Z,21.79
2023-02-13T05:15:37.208Z,21.80
2023-02-13T05:16:37.091Z,21.84
2023-02-13T05:17:37.059Z,21.83
2023-02-13T05:18:37.018Z,21.83
2023-02-13T05:19:36.996Z,21.86
2023-02-13T05:20:36.963Z,21.86
2023-02-13T05:21:36.923Z,21.91
2023-02-13T05:22:36.867Z,21.85
2023-02-13T05:23:36.876Z,21.90
2023-02-13T05:24:36.789Z,21.92
2023-02-13T05:25:36.752Z,21.91
2023-02-13T05:26:36.714Z,21.90
2023-02-13T05:27:36.663Z,21.92
2023-02-13T05:28:36.663Z,21.89
2023-02-13T05:29:36.582Z,21.93
2023-02-13T05:30:36.564Z,21.93
2023-02-13T05:31:36.662Z,21.95
2023-02-13T05:32:36.464Z,22.00
2023-02-13T05:33:36.617Z,21.97
2023-02-13T05:34:36.435Z,21.97
2023-02-13T05:35:36.344Z,21.99
2023-02-13T05:36:36.312Z,21.99
2023-02-13T05:37:36.281Z,21.99
2023-02-13T05:38:36.322Z,21.99
2023-02-13T05:39:36.217Z,22.00
2023-02-13T05:40:36.164Z,22.02
2023-02-13T05:41:36.116Z,21.96
2023-02-13T05:42:36.079Z,22.06
2023-02-13T05:43:36.017Z,22.08
2023-02-13T05:44:35.994Z,22.07
2023-02-13T05:45:35.948Z,22.07
2023-02-13T05:46:35.968Z,22.05
2023-02-13T05:47:35.886Z,21.97
2023-02-13T05:48:35.856Z,22.06
2023-02-13T05:49:35.784Z,22.09
2023-02-13T05:50:35.779Z,22.08
2023-02-13T05:51:35.699Z,22.09
2023-02-13T05:52:35.663Z,22.13
2023-02-13T05:53:35.640Z,22.12
2023-02-13T05:54:35.588Z,22.09
2023-02-13T05:55:35.553Z,22.12
2023-02-13T05:56:35.499Z,22.15
2023-02-13T05:57:35.450Z,22.20
2023-02-13T05:58:35.419Z,22.13
2023-02-13T05:59:35.382Z,22.15
2023-02-13T06:00:35.328Z,22.12
2023-02-13T06:01:35.306Z,22.16
2023-02-13T06:02:35.322Z,22.15
2023-02-13T06:03:35.266Z,22.13
2023-02-13T06:04:35.167Z,22.12
2023-02-13T06:05:35.148Z,22.16
2023-02-13T06:06:35.154Z,22.13
2023-02-13T06:07:35.061Z,22.18
2023-02-13T06:08:35.026Z,22.18
2023-02-13T06:09:34.988Z,22.13
2023-02-13T06:10:34.972Z,22.23
2023-02-13T06:11:34.902Z,22.24
2023-02-13T06:12:34.884Z,22.23
2023-02-13T06:13:34.814Z,22.26
2023-02-13T06:14:34.779Z,22.24
2023-02-13T06:15:34.771Z,22.16
2023-02-13T06:16:34.725Z,22.21
2023-02-13T06:17:34.725Z,22.26
2023-02-13T06:18:34.630Z,22.20
2023-02-13T06:19:34.577Z,22.21
2023-02-13T06:20:34.552Z,22.24
2023-02-13T06:21:34.516Z,22.26
2023-02-13T06:22:34.459Z,22.21
2023-02-13T06:23:34.446Z,22.26
2023-02-13T06:24:34.367Z,22.27
2023-02-13T06:25:34.329Z,22.24
2023-02-13T06:26:34.302Z,22.26
2023-02-13T06:27:34.256Z,22.30
2023-02-13T06:28:34.280Z,22.27
2023-02-13T06:29:34.196Z,22.21
2023-02-13T06:30:34.204Z,22.27
2023-02-13T06:31:34.155Z,22.21
2023-02-13T06:32:34.074Z,22.23
2023-02-13T06:33:34.054Z,22.27
2023-02-13T06:34:34.020Z,22.24
2023-02-13T06:35:33.997Z,22.28
2023-02-13T06:50:34.222Z,22.32
2023-02-13T09:13:26.577Z,19.96
2023-02-13T09:14:26.548Z,19.85
2023-02-13T09:15:26.446Z,19.91
2023-02-13T09:16:26.416Z,19.86
2023-02-13T09:17:26.345Z,19.80
2023-02-13T09:18:26.253Z,19.85
2023-02-13T09:19:26.192Z,19.79
2023-02-13T09:20:26.093Z,19.76
2023-02-13T09:21:26.014Z,19.78
2023-02-13T09:22:25.983Z,19.81
2023-02-13T09:23:25.934Z,19.69
2023-02-13T09:24:25.876Z,19.82
2023-02-13T09:25:25.777Z,19.86
2023-02-13T09:26:25.686Z,19.84
2023-02-13T09:27:25.603Z,19.77
2023-02-13T09:28:25.582Z,19.78
2023-02-13T09:29:25.506Z,19.77
2023-02-13T09:30:25.584Z,19.76
2023-02-13T09:31:27.228Z,19.73
2023-02-13T09:32:25.285Z,19.70
2023-02-13T09:33:25.168Z,19.78
2023-02-13T09:34:25.129Z,19.70
2023-02-13T09:35:25.022Z,19.70
2023-02-13T09:36:24.977Z,19.70
2023-02-13T09:37:24.924Z,19.60
2023-02-13T09:38:24.845Z,19.64
2023-02-13T09:39:24.794Z,19.63
2023-02-13T09:40:24.700Z,19.53
2023-02-13T09:41:24.629Z,19.73
2023-02-13T09:42:24.565Z,19.56
2023-02-13T09:43:24.477Z,19.54
2023-02-13T09:44:24.408Z,19.54
2023-02-13T09:45:24.376Z,19.48
2023-02-13T09:46:24.327Z,19.54
2023-02-13T09:47:24.194Z,19.53
2023-02-13T09:48:24.132Z,19.47
2023-02-13T09:49:24.028Z,19.40
2023-02-13T09:50:24.003Z,19.38
2023-02-13T11:48:14.203Z,18.58
2023-02-13T11:49:14.118Z,18.61
2023-02-13T11:50:14.016Z,18.63
2023-02-13T11:55:14.341Z,18.60
2023-02-13T11:57:13.378Z,18.63
2023-02-13T11:58:13.258Z,18.66
2023-02-13T11:59:13.158Z,18.65
2023-02-13T12:00:13.063Z,18.65
2023-02-13T12:01:12.952Z,18.68
2023-02-13T12:02:12.884Z,18.62
2023-02-13T12:03:12.899Z,18.62
2023-02-13T12:05:12.576Z,18.59
2023-02-13T12:06:12.465Z,18.59
2023-02-13T12:07:12.398Z,18.59
2023-02-13T12:08:12.278Z,18.61
2023-02-13T12:09:12.220Z,18.53
2023-02-13T12:10:12.111Z,18.58
2023-02-13T12:11:11.998Z,18.58
2023-02-13T12:12:11.933Z,18.58
2023-02-13T12:13:11.835Z,18.48
2023-02-13T12:14:11.713Z,18.56
2023-02-13T12:15:11.619Z,18.53
2023-02-13T12:16:11.528Z,18.50
2023-02-13T12:17:19.080Z,18.50
2023-02-13T12:18:12.330Z,18.57
2023-02-13T12:19:11.234Z,18.58
2023-02-13T12:20:11.140Z,18.52
2023-02-13T12:21:11.034Z,18.54
2023-02-13T12:22:10.900Z,18.49
2023-02-13T12:23:10.873Z,18.45
2023-02-13T12:24:10.746Z,18.48
2023-02-13T12:25:10.615Z,18.46
2023-02-13T12:26:10.524Z,18.42
2023-02-13T12:27:10.399Z,18.45
2023-02-13T12:28:10.406Z,18.40
2023-02-13T12:29:10.263Z,18.48
2023-02-13T12:30:10.094Z,18.46
2023-02-13T12:31:10.047Z,18.45
2023-02-13T12:32:09.935Z,18.39
2023-02-13T12:33:09.848Z,18.45
2023-02-13T12:34:09.793Z,18.48
2023-02-13T12:35:09.611Z,18.48
2023-02-13T12:36:09.504Z,18.44
2023-02-13T12:37:09.468Z,18.45
2023-02-13T12:38:09.331Z,18.47
2023-02-13T12:39:09.233Z,18.45
2023-02-13T12:40:09.137Z,18.42
2023-02-13T12:41:09.037Z,18.44
2023-02-13T12:42:08.953Z,18.48
2023-02-13T12:43:08.873Z,18.51
2023-02-13T12:44:08.779Z,18.42
2023-02-13T12:45:08.610Z,18.44
2023-02-13T12:46:08.597Z,18.39
2023-02-13T12:47:08.441Z,18.45
2023-02-13T12:48:08.368Z,18.45
2023-02-13T12:49:08.248Z,18.47
2023-02-13T12:50:08.143Z,18.44
2023-02-13T12:51:08.001Z,18.42
2023-02-13T12:52:07.895Z,18.42
2023-02-13T12:53:07.844Z,18.38
2023-02-13T12:54:07.717Z,18.35
2023-02-13T12:55:07.581Z,18.39
2023-02-13T12:56:07.499Z,18.44
2023-02-13T12:57:07.396Z,18.40
2023-02-13T12:58:07.313Z,18.44
2023-02-13T12:59:07.163Z,18.36
2023-02-13T13:00:07.092Z,18.41
2023-02-13T13:01:07.059Z,18.37
2023-02-13T13:02:06.896Z,18.36
2023-02-13T13:03:06.800Z,18.40
2023-02-13T13:04:06.699Z,18.38
2023-02-13T13:05:06.630Z,18.38
2023-02-13T13:06:12.175Z,18.38
2023-02-13T13:07:07.340Z,18.41
2023-02-13T13:08:06.252Z,18.41
2023-02-13T13:09:06.209Z,18.40
2023-02-13T13:10:06.079Z,18.38
2023-02-13T13:11:05.961Z,18.43
2023-02-13T13:12:06.839Z,18.35
2023-02-13T13:13:05.786Z,18.35
2023-02-13T13:14:05.668Z,18.38
2023-02-13T13:15:05.577Z,18.43
2023-02-13T13:16:05.451Z,18.37
2023-02-13T13:17:05.378Z,18.35
2023-02-13T13:18:05.271Z,18.33
2023-02-13T13:19:05.201Z,18.41
2023-02-13T13:20:05.129Z,18.40
2023-02-13T13:21:04.974Z,18.33
2023-02-13T13:22:04.876Z,18.37
2023-02-13T13:23:04.761Z,18.29
2023-02-13T13:24:04.684Z,18.29
2023-02-13T13:25:04.553Z,18.29
2023-02-13T13:26:04.500Z,18.23
2023-02-13T13:27:04.373Z,18.31
2023-02-13T13:28:04.288Z,18.26
2023-02-13T13:29:04.159Z,18.29
2023-02-13T13:30:04.125Z,18.26
2023-02-13T13:31:04.063Z,18.29
2023-02-13T14:20:59.398Z,18.35
2023-02-13T14:45:56.405Z,18.44
2023-02-13T14:46:56.278Z,18.48
2023-02-13T14:47:56.149Z,18.52
2023-02-13T14:48:56.085Z,18.50
2023-02-13T14:49:55.992Z,18.50
2023-02-13T14:50:56.290Z,18.56
2023-02-13T14:51:55.775Z,18.58
2023-02-13T14:52:55.680Z,18.58
2023-02-13T14:53:55.590Z,18.58
2023-02-13T14:54:55.526Z,18.59
2023-02-13T14:55:55.450Z,18.62
2023-02-13T14:56:55.305Z,18.56
2023-02-13T14:57:55.252Z,18.74
2023-02-13T14:58:55.131Z,18.64
2023-02-13T14:59:55.047Z,18.69
2023-02-13T15:00:55.049Z,18.72
2023-02-13T15:01:54.883Z,18.82
2023-02-13T15:02:54.789Z,18.70
2023-02-13T15:03:54.858Z,18.78
2023-02-13T15:04:54.643Z,18.79
2023-02-13T15:05:54.505Z,18.82
2023-02-13T15:06:54.414Z,18.88
2023-02-13T15:07:54.367Z,18.88
2023-02-13T15:08:54.231Z,18.85
2023-02-13T15:09:54.182Z,18.95
2023-02-13T15:10:54.079Z,18.94
2023-02-13T15:11:53.948Z,18.92
2023-02-13T15:32:52.199Z,19.26
2023-02-13T15:33:52.120Z,19.27
2023-02-13T15:34:52.021Z,19.21
2023-02-13T15:35:51.933Z,19.29
2023-02-13T15:36:51.885Z,19.32
2023-02-13T15:37:51.803Z,19.34
2023-02-13T15:38:51.669Z,19.39
2023-02-13T15:39:51.600Z,19.40
2023-02-13T15:40:51.543Z,19.42
2023-02-13T15:41:51.459Z,19.35
2023-02-13T15:42:51.348Z,19.43
2023-02-13T15:43:51.259Z,19.45
2023-02-13T15:44:51.199Z,19.40
2023-02-13T15:45:51.126Z,19.47
2023-02-13T15:47:50.972Z,19.47
2023-02-13T15:48:50.835Z,19.50
2023-02-13T15:49:50.786Z,19.53
2023-02-13T15:50:50.649Z,19.51
2023-02-13T15:51:50.595Z,19.53
2023-02-13T15:52:50.493Z,19.52
2023-02-13T15:53:50.457Z,19.48
2023-02-13T15:54:50.336Z,19.50
2023-02-13T15:55:50.294Z,19.63
2023-02-13T15:56:50.207Z,19.58
2023-02-13T15:57:50.084Z,19.74
2023-02-13T15:58:49.989Z,19.62
2023-02-13T15:59:49.897Z,19.77
2023-02-13T16:00:49.816Z,19.57
2023-02-13T16:01:50.969Z,19.75
2023-02-13T16:02:49.673Z,19.71
2023-02-13T16:03:49.647Z,19.73
2023-02-13T16:04:49.498Z,19.79
2023-02-13T16:05:49.486Z,19.75
2023-02-13T16:06:49.369Z,19.82
2023-02-13T16:07:49.229Z,19.82
2023-02-13T16:08:49.153Z,19.90
2023-02-13T16:09:49.100Z,19.82
2023-02-13T16:10:48.997Z,19.85
2023-02-13T16:11:48.965Z,19.83
2023-02-13T16:12:48.890Z,19.85
2023-02-13T16:13:48.758Z,19.89
2023-02-13T16:14:48.683Z,19.89
2023-02-13T16:15:48.715Z,19.91
2023-02-13T16:16:48.526Z,19.94
2023-02-13T16:17:48.497Z,19.92
2023-02-13T16:18:48.383Z,20.00
2023-02-13T16:19:48.288Z,19.92
2023-02-13T16:20:48.204Z,20.01
2023-02-13T16:21:48.152Z,19.96
2023-02-13T16:22:48.092Z,20.01
2023-02-13T16:23:47.976Z,19.98
2023-02-13T16:24:47.888Z,20.05
2023-02-13T16:25:47.821Z,20.05
2023-02-13T16:26:47.716Z,20.08
2023-02-13T16:27:47.644Z,20.07
2023-02-13T16:28:47.573Z,20.07
2023-02-13T16:29:47.511Z,20.04
2023-02-13T16:30:47.477Z,20.10
2023-02-13T16:31:47.387Z,19.94
2023-02-13T16:32:47.262Z,20.11
2023-02-13T16:33:47.146Z,20.14
2023-02-13T16:34:47.078Z,20.12
2023-02-13T16:35:46.988Z,20.11
2023-02-13T16:36:46.975Z,20.12
2023-02-13T16:37:46.825Z,20.16
2023-02-13T16:38:46.746Z,20.20
2023-02-13T16:39:46.695Z,20.20
2023-02-13T16:40:46.602Z,20.18
2023-02-13T16:41:46.504Z,20.24
2023-02-13T16:42:46.419Z,20.30
2023-02-13T16:43:46.380Z,20.20
2023-02-13T16:44:46.273Z,20.23
2023-02-13T16:45:46.293Z,20.27
2023-02-13T16:46:47.939Z,20.27
2023-02-13T16:47:46.043Z,20.26
2023-02-13T16:48:45.957Z,20.33
2023-02-13T16:49:45.894Z,20.28
2023-02-13T16:50:45.830Z,20.34
2023-02-13T16:51:45.752Z,20.36
2023-02-13T16:52:45.682Z,20.31
2023-02-13T16:53:45.584Z,20.33
2023-02-13T16:54:45.521Z,20.42
2023-02-13T16:55:45.437Z,20.33
2023-02-13T16:56:45.382Z,20.31
2023-02-13T16:57:45.298Z,20.39
2023-02-13T16:58:45.217Z,20.31
2023-02-13T16:59:45.152Z,20.43
2023-02-13T17:00:45.125Z,20.45
2023-02-13T17:01:45.023Z,20.43
2023-02-13T17:02:44.948Z,20.43
2023-02-13T17:03:44.881Z,20.48
2023-02-13T17:04:44.791Z,20.28
2023-02-13T17:05:44.723Z,20.49
2023-02-13T17:06:44.628Z,20.46
2023-02-13T17:07:44.569Z,20.50
2023-02-13T17:08:44.489Z,20.43
2023-02-13T17:09:44.432Z,20.50
2023-02-13T17:10:44.372Z,20.50
2023-02-13T17:11:44.266Z,20.49
2023-02-13T17:12:44.186Z,20.49
2023-02-13T17:13:44.151Z,20.47
2023-02-13T17:14:44.027Z,20.44
2023-02-13T17:15:43.981Z,20.49
2023-02-13T17:16:43.895Z,20.53
2023-02-13T17:17:43.803Z,20.49
2023-02-13T17:18:43.726Z,20.46
2023-02-13T17:19:43.650Z,20.53
2023-02-13T17:20:43.584Z,20.56
2023-02-13T17:21:43.515Z,20.44
2023-02-13T17:22:43.429Z,20.64
2023-02-13T17:23:43.397Z,20.66
2023-02-13T17:24:43.303Z,20.61
2023-02-13T17:25:43.227Z,20.57
2023-02-13T17:26:43.119Z,20.56
2023-02-13T17:27:43.057Z,20.56
2023-02-13T17:28:43.032Z,20.62
2023-02-13T17:29:42.948Z,20.60
2023-02-13T17:30:42.869Z,20.62
2023-02-13T17:31:42.896Z,20.63
2023-02-13T17:32:42.724Z,20.57
2023-02-13T17:33:42.652Z,20.63
2023-02-13T17:34:42.620Z,20.62
2023-02-13T17:35:42.523Z,20.74
2023-02-13T17:36:42.457Z,20.66
2023-02-13T17:37:42.379Z,20.69
2023-02-13T17:38:42.335Z,20.69
2023-02-13T17:39:42.294Z,20.66
2023-02-13T17:40:42.187Z,20.69
2023-02-13T17:41:42.145Z,20.66
2023-02-13T17:42:42.044Z,20.74
2023-02-13T17:43:41.988Z,20.73
2023-02-13T17:44:41.892Z,20.78
2023-02-13T17:45:41.889Z,20.82
2023-02-13T17:46:41.754Z,20.82
2023-02-13T17:47:41.712Z,20.73
2023-02-13T17:48:41.659Z,20.79
2023-02-13T17:49:41.584Z,20.76
2023-02-13T17:50:41.484Z,20.82
2023-02-13T17:51:41.434Z,20.87
2023-02-13T17:52:41.338Z,20.82
2023-02-13T17:53:41.339Z,20.61
2023-02-13T17:54:41.247Z,20.85
2023-02-13T17:55:41.146Z,20.82
2023-02-13T17:56:41.041Z,20.87
2023-02-13T17:57:41.023Z,20.81
2023-02-13T17:58:40.917Z,20.78
2023-02-13T17:59:40.867Z,20.78
2023-02-13T18:00:40.778Z,20.84
2023-02-13T18:01:40.769Z,20.85
2023-02-13T18:02:40.618Z,20.85
2023-02-13T18:03:40.603Z,20.91
2023-02-13T18:04:40.561Z,20.85
2023-02-13T18:05:40.443Z,20.78
2023-02-13T18:06:40.397Z,20.87
2023-02-13T18:07:40.293Z,20.91
2023-02-13T18:08:40.215Z,20.61
2023-02-13T18:09:40.152Z,20.82
2023-02-13T18:10:40.059Z,20.92
2023-02-13T18:11:39.989Z,20.85
2023-02-13T18:12:39.930Z,20.84
2023-02-13T18:13:39.867Z,20.85
2023-02-13T18:14:39.778Z,20.79
2023-02-13T18:15:39.809Z,20.71
2023-02-13T18:16:39.641Z,20.91
2023-02-13T18:17:39.602Z,20.88
2023-02-13T18:18:39.498Z,20.89
2023-02-13T18:19:39.408Z,20.97
2023-02-13T18:20:39.356Z,20.92
2023-02-13T18:21:39.307Z,20.95
2023-02-13T18:22:39.216Z,20.95
2023-02-13T18:23:39.155Z,20.94
2023-02-13T18:24:39.084Z,20.89
2023-02-13T18:25:39.023Z,20.86
2023-02-13T18:26:38.933Z,20.98
2023-02-13T18:27:38.850Z,20.86
2023-02-13T18:28:38.789Z,21.04
2023-02-13T18:29:38.718Z,21.00
2023-02-13T18:30:38.653Z,20.97
2023-02-13T18:31:38.685Z,20.98
2023-02-13T18:32:38.495Z,21.03
2023-02-13T18:33:38.449Z,21.04
2023-02-13T18:34:38.364Z,21.03
2023-02-13T18:35:38.329Z,21.04
2023-02-13T18:36:38.236Z,21.05
2023-02-13T18:37:38.184Z,20.81
2023-02-13T18:38:38.092Z,21.05
2023-02-13T18:39:38.066Z,21.02
2023-02-13T18:40:37.977Z,21.13
2023-02-13T18:41:37.906Z,20.99
2023-02-13T18:42:37.829Z,21.10
2023-02-13T18:43:37.769Z,21.03
2023-02-13T18:44:37.777Z,21.08
2023-02-13T18:45:37.624Z,21.01
2023-02-13T18:46:37.912Z,21.13
2023-02-13T18:47:37.468Z,21.11
2023-02-13T18:48:37.444Z,21.08
2023-02-13T18:49:37.352Z,21.07
2023-02-13T18:50:37.282Z,21.11
2023-02-13T18:51:37.211Z,21.11
2023-02-13T18:52:37.162Z,21.14
2023-02-13T18:53:37.106Z,21.10
2023-02-13T18:54:37.099Z,21.19
2023-02-13T18:55:36.965Z,21.08
2023-02-13T18:56:36.905Z,21.10
2023-02-13T18:57:36.844Z,20.96
2023-02-13T18:58:36.785Z,21.24
2023-02-13T18:59:36.701Z,21.15
2023-02-13T19:00:36.661Z,21.17
2023-02-13T19:01:36.633Z,21.17
2023-02-13T19:02:36.558Z,21.15
2023-02-13T19:03:36.461Z,21.17
2023-02-13T19:04:36.403Z,21.20
2023-02-13T19:05:36.349Z,21.20
2023-02-13T19:06:36.316Z,21.13
2023-02-13T19:07:36.192Z,21.24
2023-02-13T19:08:36.131Z,21.21
2023-02-13T19:09:36.085Z,21.18
2023-02-13T19:10:36.505Z,21.24
2023-02-13T19:11:35.948Z,21.28
2023-02-13T19:12:35.902Z,21.27
2023-02-13T19:13:35.824Z,21.20
2023-02-13T19:14:35.798Z,21.26
2023-02-13T19:15:35.774Z,21.27
2023-02-13T19:16:35.677Z,21.29
2023-02-13T19:17:35.576Z,21.33
2023-02-13T19:18:35.517Z,21.32
2023-02-13T19:19:35.507Z,21.27
2023-02-13T19:20:35.460Z,21.24
2023-02-13T19:21:35.359Z,21.26
2023-02-13T19:22:35.292Z,21.32
2023-02-13T19:23:35.248Z,21.32
2023-02-13T19:24:35.167Z,21.35
2023-02-13T19:25:35.110Z,21.36
2023-02-13T19:26:35.061Z,21.37
2023-02-13T19:27:34.984Z,21.33
2023-02-13T19:28:35.045Z,21.39
2023-02-13T19:29:34.893Z,21.30
2023-02-13T19:30:34.855Z,21.39
2023-02-13T19:31:34.958Z,21.31
2023-02-13T19:32:34.681Z,21.37
2023-02-13T19:33:34.622Z,21.41
2023-02-13T19:34:34.572Z,21.43
2023-02-13T19:35:34.566Z,21.44
2023-02-13T19:36:34.470Z,21.41
2023-02-13T19:37:43.503Z,21.31
2023-02-13T19:38:35.342Z,21.42
2023-02-13T19:39:34.274Z,21.41
2023-02-13T19:40:34.231Z,21.36
2023-02-13T19:41:34.169Z,21.41
2023-02-13T19:42:34.112Z,21.41
2023-02-13T19:43:34.041Z,21.43
2023-02-13T19:44:33.986Z,21.45
2023-02-13T19:45:33.988Z,21.41
2023-02-13T21:12:29.073Z,21.84
2023-02-13T21:13:29.012Z,21.84
2023-02-13T21:14:28.958Z,21.84
2023-02-13T21:15:28.887Z,21.85
2023-02-13T21:16:28.897Z,21.87
2023-02-13T21:17:28.824Z,21.81
2023-02-13T21:18:28.754Z,21.84
2023-02-13T21:19:28.705Z,21.85
2023-02-13T21:20:28.652Z,21.94
2023-02-13T21:21:28.611Z,21.88
2023-02-13T21:22:28.586Z,21.89
2023-02-13T21:23:28.523Z,21.86
2023-02-13T21:24:28.454Z,21.85
2023-02-13T21:25:28.414Z,21.88
2023-02-13T21:26:28.370Z,21.91
2023-02-13T21:27:28.343Z,21.89
2023-02-13T21:28:28.286Z,21.93
2023-02-13T21:29:28.208Z,21.88
2023-02-13T21:30:28.275Z,21.91
2023-02-13T21:31:28.227Z,21.85
2023-02-13T21:32:28.084Z,21.94
2023-02-13T21:33:28.015Z,21.90
2023-02-13T21:34:27.948Z,21.93
2023-02-13T21:35:27.917Z,21.94
2023-02-13T21:36:27.865Z,21.92
2023-02-13T21:37:27.829Z,21.94
2023-02-13T21:38:27.770Z,21.96
2023-02-13T21:39:27.749Z,21.94
2023-02-13T21:40:27.656Z,21.99
2023-02-13T21:41:27.648Z,21.96
2023-02-13T21:42:27.603Z,21.99
2023-02-13T21:43:27.508Z,21.94
2023-02-13T21:44:27.468Z,21.96
2023-02-13T21:45:27.431Z,21.95
2023-02-13T21:46:27.372Z,21.99
2023-02-13T21:47:27.399Z,22.03
2023-02-13T21:48:27.295Z,21.97
2023-02-13T21:49:27.203Z,21.98
2023-02-13T21:50:27.153Z,22.06
2023-02-13T21:51:27.105Z,21.98
2023-02-13T21:52:27.066Z,21.95
2023-02-13T21:53:26.997Z,22.03
2023-02-13T21:54:26.946Z,22.05
2023-02-13T21:55:26.907Z,22.05
2023-02-13T21:56:26.859Z,22.01
2023-02-13T21:57:26.786Z,21.97
2023-02-13T21:58:26.784Z,22.04
2023-02-13T21:59:26.698Z,22.03
2023-02-13T22:00:26.651Z,22.00
2023-02-13T22:01:27.350Z,22.04
2023-02-13T22:02:26.628Z,22.07
2023-02-13T22:03:26.492Z,22.04
2023-02-13T22:04:26.465Z,22.06
2023-02-13T22:05:26.384Z,22.07
2023-02-13T22:06:26.368Z,22.05
2023-02-13T22:07:26.319Z,22.03
2023-02-13T22:08:26.238Z,22.10
2023-02-13T22:09:26.184Z,22.09
2023-02-13T22:10:26.144Z,22.10
2023-02-13T22:11:26.082Z,22.12
2023-02-13T22:12:26.044Z,22.07
2023-02-13T22:13:26.001Z,22.10
2023-02-13T22:14:25.962Z,22.04
2023-02-13T22:15:25.901Z,22.12
2023-02-13T22:16:25.919Z,22.15
2023-02-13T22:17:25.819Z,22.13
2023-02-13T22:18:25.753Z,22.10
2023-02-13T22:19:25.676Z,22.12
2023-02-13T22:20:25.615Z,22.09
2023-02-13T22:21:25.593Z,22.10
2023-02-13T22:22:25.533Z,22.09
2023-02-13T22:23:25.484Z,22.16
2023-02-13T22:24:25.428Z,22.16
2023-02-13T22:25:25.353Z,22.13
2023-02-13T22:26:25.337Z,22.18
2023-02-13T22:27:25.277Z,22.18
2023-02-13T22:28:25.274Z,22.18
2023-02-13T22:29:25.189Z,22.21
2023-02-13T22:30:25.212Z,22.19
2023-02-13T22:31:26.070Z,22.17
2023-02-13T22:32:25.105Z,22.21
2023-02-13T22:33:25.011Z,22.18
2023-02-13T22:34:25.586Z,22.19
2023-02-13T22:35:24.962Z,22.19
2023-02-13T22:36:24.874Z,22.18
2023-02-13T22:37:24.829Z,22.21
2023-02-13T22:38:24.788Z,22.18
2023-02-13T22:39:24.730Z,22.13
2023-02-13T22:40:24.693Z,22.24
2023-02-13T22:41:24.604Z,22.19
2023-02-13T22:42:24.546Z,22.21
2023-02-13T22:43:24.518Z,22.22
2023-02-13T22:44:24.504Z,22.19
2023-02-13T22:45:24.427Z,22.19
2023-02-13T22:46:24.404Z,22.25
2023-02-13T22:47:24.362Z,22.20
2023-02-13T22:48:24.285Z,22.25
2023-02-13T22:49:24.229Z,22.22
2023-02-13T22:50:24.181Z,22.25
2023-02-13T22:51:24.151Z,22.26
2023-02-13T22:52:24.082Z,22.24
2023-02-13T22:53:24.040Z,22.25
2023-02-13T22:54:23.990Z,22.29
2023-02-13T22:55:23.957Z,22.20
